Time;durP1;ratioP1;P1;durP2;ratioP2;P2;SDS_P1;SDS_P2;PMS_P1;PMS_P2;Temp;Humidity;BMP_temperature;BMP_pressure;BME280_temperature;BME280_humidity;BME280_pressure;Samples;Min_cycle;Max_cycle;Signal;HPM_P1;HPM_P2
2021/12/01 00:00:55;;;;;;;3.47;1.43;;;5.40;99.90;;;;;;5056129;28;20186;-79
2021/12/01 00:03:21;;;;;;;3.23;1.27;;;5.40;99.90;;;;;;5063319;28;20543;-80
2021/12/01 00:05:47;;;;;;;2.80;1.10;;;5.50;99.90;;;;;;5055821;28;20182;-80
2021/12/01 00:08:13;;;;;;;3.50;1.20;;;5.40;99.90;;;;;;5073888;28;20695;-79
2021/12/01 00:10:40;;;;;;;8.30;1.50;;;5.30;99.90;;;;;;5073842;28;20706;-79
2021/12/01 00:13:09;;;;;;;4.73;1.43;;;5.40;99.90;;;;;;5073194;28;20203;-79
2021/12/01 00:15:36;;;;;;;5.40;1.53;;;5.40;99.90;;;;;;5074323;28;20252;-81
2021/12/01 00:18:01;;;;;;;2.47;1.23;;;5.30;99.90;;;;;;5061216;28;20255;-80
2021/12/01 00:20:27;;;;;;;5.70;1.53;;;5.30;99.90;;;;;;5054397;28;20190;-80
2021/12/01 00:22:55;;;;;;;5.33;1.23;;;5.30;99.90;;;;;;5054871;28;20277;-80
2021/12/01 00:25:23;;;;;;;3.63;1.10;;;5.30;99.90;;;;;;5055123;28;20205;-80
2021/12/01 00:27:52;;;;;;;1.00;0.77;;;5.30;99.90;;;;;;5072456;28;20201;-80
2021/12/01 00:30:18;;;;;;;1.97;0.70;;;5.30;99.90;;;;;;5072763;28;20232;-79
2021/12/01 00:32:45;;;;;;;3.90;1.53;;;5.30;99.90;;;;;;5073248;28;20612;-78
2021/12/01 00:35:11;;;;;;;2.90;1.07;;;5.30;99.90;;;;;;5074412;28;20189;-78
2021/12/01 00:37:38;;;;;;;4.17;1.10;;;5.30;99.90;;;;;;5076809;28;20206;-79
2021/12/01 00:40:05;;;;;;;4.23;1.13;;;5.30;99.90;;;;;;5068222;28;20276;-81
2021/12/01 00:42:31;;;;;;;2.80;1.03;;;5.20;99.90;;;;;;5075492;28;20181;-81
2021/12/01 00:45:00;;;;;;;2.47;0.87;;;5.20;99.90;;;;;;5076846;28;20227;-81
2021/12/01 00:47:47;;;;;;;3.20;1.17;;;5.20;99.90;;;;;;5074641;28;20221;-80
2021/12/01 00:50:18;;;;;;;5.87;1.10;;;5.20;99.90;;;;;;5073717;28;20702;-81
2021/12/01 00:52:44;;;;;;;3.23;1.07;;;5.20;99.90;;;;;;5074785;28;20182;-80
2021/12/01 00:55:10;;;;;;;2.70;0.87;;;5.20;99.90;;;;;;5075330;28;20184;-79
2021/12/01 00:57:35;;;;;;;4.83;1.30;;;5.10;99.90;;;;;;5056574;28;20672;-80
2021/12/01 01:00:04;;;;;;;6.07;1.10;;;5.10;99.90;;;;;;5073546;28;20670;-81
2021/12/01 01:02:30;;;;;;;3.03;0.87;;;5.10;99.90;;;;;;5055179;28;20185;-80
2021/12/01 01:04:55;;;;;;;2.07;0.87;;;5.10;99.90;;;;;;5055319;28;20182;-79
2021/12/01 01:07:21;;;;;;;3.33;1.27;;;5.10;99.90;;;;;;5071890;28;20884;-80
2021/12/01 01:09:47;;;;;;;3.77;1.50;;;5.10;99.90;;;;;;5055200;28;21064;-81
2021/12/01 01:17:41;;;;;;;2.43;1.20;;;5.00;99.90;;;;;;5071679;28;20236;-79
2021/12/01 01:20:11;;;;;;;4.93;1.27;;;5.10;99.90;;;;;;5072277;28;20174;-79
2021/12/01 01:22:38;;;;;;;3.73;1.10;;;5.00;99.90;;;;;;5053473;28;20249;-81
2021/12/01 01:25:07;;;;;;;5.57;1.60;;;5.00;99.90;;;;;;5071176;28;20178;-79
2021/12/01 01:27:32;;;;;;;1.57;1.13;;;5.00;99.90;;;;;;5071242;28;20242;-79
2021/12/01 01:29:58;;;;;;;2.53;1.10;;;5.00;99.90;;;;;;5071947;28;20646;-78
2021/12/01 01:32:24;;;;;;;3.37;1.37;;;4.90;99.90;;;;;;5071131;28;20228;-79
2021/12/01 01:34:49;;;;;;;3.07;1.27;;;5.00;99.90;;;;;;5071404;28;20607;-79
2021/12/01 01:37:15;;;;;;;3.50;1.23;;;5.00;99.90;;;;;;5052406;28;20186;-77
2021/12/01 01:39:41;;;;;;;3.03;1.00;;;5.10;99.90;;;;;;5071480;28;20188;-78
2021/12/01 01:42:06;;;;;;;4.53;1.00;;;5.00;99.90;;;;;;5071060;28;20174;-79
2021/12/01 01:44:32;;;;;;;2.57;1.10;;;5.00;99.90;;;;;;5087823;28;20186;-77
2021/12/01 01:46:59;;;;;;;3.80;1.20;;;5.00;99.90;;;;;;5091104;28;20189;-78
2021/12/01 01:52:09;;;;;;;4.50;1.40;;;5.00;99.90;;;;;;5092117;28;20182;-77
2021/12/01 01:54:34;;;;;;;2.97;1.20;;;4.90;99.90;;;;;;5091739;28;20199;-77
2021/12/01 01:57:00;;;;;;;2.70;1.03;;;5.00;99.90;;;;;;5091766;28;20173;-78
2021/12/01 01:59:25;;;;;;;1.30;1.20;;;5.00;99.90;;;;;;5091157;28;20209;-77
2021/12/01 02:01:56;;;;;;;1.57;1.10;;;4.90;99.90;;;;;;5091508;28;20189;-78
2021/12/01 02:04:23;;;;;;;4.70;1.40;;;4.90;99.90;;;;;;5090930;28;20249;-78
2021/12/01 02:06:49;;;;;;;4.50;1.37;;;4.90;99.90;;;;;;5073616;28;20181;-77
2021/12/01 02:09:19;;;;;;;2.80;1.37;;;4.80;99.90;;;;;;5073124;28;20192;-77
2021/12/01 02:11:45;;;;;;;4.10;1.37;;;4.90;99.90;;;;;;5054472;28;20205;-79
2021/12/01 02:14:11;;;;;;;5.13;1.53;;;4.80;99.90;;;;;;5071966;28;20214;-78
2021/12/01 02:16:37;;;;;;;1.80;1.50;;;4.80;99.90;;;;;;5070564;28;20201;-77
2021/12/01 02:19:04;;;;;;;3.43;1.40;;;4.80;99.90;;;;;;5069489;28;20213;-78
2021/12/01 02:21:31;;;;;;;4.37;1.50;;;4.80;99.90;;;;;;5051516;28;20193;-79
2021/12/01 02:24:02;;;;;;;3.37;1.40;;;4.80;99.90;;;;;;5069459;28;20181;-78
2021/12/01 02:26:30;;;;;;;1.40;1.30;;;4.70;99.90;;;;;;5069460;28;20189;-78
2021/12/01 02:28:59;;;;;;;1.23;1.10;;;4.80;99.90;;;;;;5069277;28;20234;-79
2021/12/01 02:31:28;;;;;;;1.53;1.10;;;4.70;99.90;;;;;;5069626;28;20258;-79
2021/12/01 02:33:55;;;;;;;2.47;1.20;;;4.70;99.90;;;;;;5051550;28;20233;-77
2021/12/01 02:36:22;;;;;;;3.03;1.13;;;4.80;99.90;;;;;;5051471;28;20181;-78
2021/12/01 02:38:49;;;;;;;1.73;1.30;;;4.70;99.90;;;;;;5065103;28;20569;-78
2021/12/01 02:41:16;;;;;;;1.10;1.00;;;4.80;99.90;;;;;;5056094;28;20681;-77
2021/12/01 02:43:44;;;;;;;2.43;1.30;;;4.80;99.90;;;;;;5065978;28;20185;-80
2021/12/01 02:46:09;;;;;;;1.50;1.40;;;4.80;99.90;;;;;;5050118;28;20185;-78
2021/12/01 02:48:41;;;;;;;3.03;1.30;;;4.80;99.90;;;;;;5051325;28;20760;-78
2021/12/01 02:51:09;;;;;;;3.00;1.00;;;4.90;99.90;;;;;;5050798;28;20202;-79
2021/12/01 02:53:35;;;;;;;1.90;1.30;;;4.90;99.90;;;;;;5060117;28;20196;-79
2021/12/01 02:56:02;;;;;;;2.60;1.17;;;4.80;99.90;;;;;;5051212;28;20651;-77
2021/12/01 02:58:32;;;;;;;2.80;0.97;;;4.80;99.90;;;;;;5067780;28;20221;-77
2021/12/01 03:01:04;;;;;;;2.20;1.10;;;4.80;99.90;;;;;;5050495;28;20189;-80
2021/12/01 03:03:31;;;;;;;2.43;1.40;;;4.90;99.90;;;;;;5050863;28;20192;-80
2021/12/01 03:05:57;;;;;;;1.67;1.30;;;4.80;99.90;;;;;;5068343;28;20186;-78
2021/12/01 03:08:23;;;;;;;1.53;1.10;;;4.80;99.90;;;;;;5050561;28;20205;-80
2021/12/01 03:10:53;;;;;;;2.23;1.20;;;4.80;99.90;;;;;;5050503;28;20701;-79
2021/12/01 03:13:20;;;;;;;2.93;1.20;;;4.80;99.90;;;;;;5068679;28;20185;-78
2021/12/01 03:15:46;;;;;;;2.43;1.37;;;4.80;99.90;;;;;;5060422;28;20213;-79
2021/12/01 03:18:12;;;;;;;1.73;1.30;;;4.80;99.90;;;;;;5067381;28;20244;-80
2021/12/01 03:20:38;;;;;;;2.37;1.27;;;4.80;99.90;;;;;;5067141;28;20238;-80
2021/12/01 03:23:04;;;;;;;3.33;1.53;;;4.80;99.90;;;;;;5049060;28;20182;-79
2021/12/01 03:25:30;;;;;;;2.10;1.63;;;4.90;99.90;;;;;;5067166;28;20942;-78
2021/12/01 03:27:56;;;;;;;3.63;1.40;;;4.80;99.90;;;;;;5057836;28;20212;-79
2021/12/01 03:30:22;;;;;;;3.20;1.20;;;4.90;99.90;;;;;;5066971;28;20213;-77
2021/12/01 03:32:48;;;;;;;4.00;1.90;;;4.90;99.90;;;;;;5048639;28;20247;-78
2021/12/01 03:35:16;;;;;;;2.20;2.00;;;4.80;99.90;;;;;;5066876;28;20605;-80
2021/12/01 03:37:45;;;;;;;3.10;1.67;;;4.90;99.90;;;;;;5066449;28;20231;-80
2021/12/01 03:40:13;;;;;;;2.90;1.57;;;4.90;99.90;;;;;;5049195;28;20189;-77
2021/12/01 03:42:39;;;;;;;2.00;1.40;;;4.90;99.90;;;;;;5065976;28;20190;-76
2021/12/01 03:45:06;;;;;;;2.07;1.50;;;5.00;99.90;;;;;;5066479;28;20209;-80
2021/12/01 03:47:32;;;;;;;2.37;1.20;;;5.00;99.90;;;;;;5066217;28;20207;-79
2021/12/01 03:49:57;;;;;;;2.00;1.57;;;5.00;99.90;;;;;;5049137;28;20204;-77
2021/12/01 03:52:24;;;;;;;2.23;1.20;;;5.00;99.90;;;;;;5066562;28;20178;-79
2021/12/01 03:54:51;;;;;;;2.67;1.50;;;5.10;99.90;;;;;;5066779;28;20723;-78
2021/12/01 03:57:16;;;;;;;2.17;1.50;;;5.00;99.90;;;;;;5066308;28;20230;-79
2021/12/01 03:59:42;;;;;;;3.13;1.40;;;5.00;99.90;;;;;;5049058;28;20795;-78
2021/12/01 04:02:08;;;;;;;2.50;1.50;;;5.00;99.90;;;;;;5049155;28;20174;-80
2021/12/01 04:04:34;;;;;;;2.07;1.60;;;5.00;99.90;;;;;;5066216;28;20186;-79
2021/12/01 04:07:00;;;;;;;2.57;1.43;;;5.10;99.90;;;;;;5066764;28;20640;-78
2021/12/01 04:09:30;;;;;;;2.03;1.53;;;5.10;99.90;;;;;;5049534;28;20189;-79
2021/12/01 04:11:56;;;;;;;2.30;1.00;;;5.10;99.90;;;;;;5051689;28;20193;-78
2021/12/01 04:14:22;;;;;;;1.70;1.00;;;5.20;99.90;;;;;;5070473;28;20181;-77
2021/12/01 04:16:48;;;;;;;1.23;1.07;;;5.20;99.90;;;;;;5070219;28;21205;-78
2021/12/01 04:19:13;;;;;;;1.20;0.70;;;5.20;99.90;;;;;;5070807;28;20212;-80
2021/12/01 04:21:39;;;;;;;0.57;0.53;;;5.20;99.90;;;;;;5052356;28;20189;-79
2021/12/01 04:24:06;;;;;;;1.43;0.60;;;5.30;99.90;;;;;;5052383;28;20196;-78
2021/12/01 04:26:33;;;;;;;0.40;0.40;;;5.40;99.90;;;;;;5069171;28;20242;-78
2021/12/01 04:29:00;;;;;;;0.63;0.40;;;5.60;99.90;;;;;;5068945;28;20674;-79
2021/12/01 04:31:29;;;;;;;0.20;0.20;;;5.80;99.90;;;;;;5069426;28;20205;-79
2021/12/01 04:33:55;;;;;;;0.50;0.40;;;6.10;99.90;;;;;;5069666;28;20197;-79
2021/12/01 04:36:22;;;;;;;1.27;0.40;;;6.20;99.90;;;;;;5069838;28;20190;-78
2021/12/01 04:38:47;;;;;;;0.70;0.40;;;6.40;99.90;;;;;;5070100;28;20213;-80
2021/12/01 04:41:14;;;;;;;0.30;0.30;;;6.40;99.90;;;;;;5051645;28;20185;-81
2021/12/01 04:43:40;;;;;;;0.47;0.40;;;6.60;99.90;;;;;;5068260;28;20177;-78
2021/12/01 04:46:07;;;;;;;0.30;0.30;;;6.70;99.90;;;;;;5051598;28;20182;-77
2021/12/01 04:48:33;;;;;;;0.33;0.30;;;6.80;99.90;;;;;;5069930;28;20202;-79
2021/12/01 04:50:59;;;;;;;0.50;0.50;;;6.90;99.90;;;;;;5049357;28;20345;-81
2021/12/01 04:53:26;;;;;;;0.30;0.30;;;6.90;99.90;;;;;;5049575;28;20189;-78
2021/12/01 04:55:53;;;;;;;0.40;0.40;;;6.90;99.90;;;;;;5048730;28;20530;-79
2021/12/01 04:58:20;;;;;;;0.70;0.40;;;7.00;99.90;;;;;;5049132;28;20227;-79
2021/12/01 05:00:46;;;;;;;0.40;0.40;;;7.10;99.90;;;;;;5068102;28;20671;-79
2021/12/01 05:03:12;;;;;;;0.50;0.50;;;7.10;99.90;;;;;;5052314;28;20185;-78
2021/12/01 05:05:37;;;;;;;0.30;0.30;;;7.30;99.90;;;;;;5067330;28;20192;-78
2021/12/01 05:08:03;;;;;;;0.67;0.50;;;7.20;99.90;;;;;;5047805;28;20214;-80
2021/12/01 05:10:30;;;;;;;1.47;0.53;;;7.10;99.90;;;;;;5049101;28;20209;-79
2021/12/01 05:12:56;;;;;;;0.40;0.40;;;7.20;99.90;;;;;;5048794;28;20231;-78
2021/12/01 05:15:21;;;;;;;0.30;0.30;;;7.30;99.90;;;;;;5048312;28;20636;-79
2021/12/01 05:17:47;;;;;;;0.93;0.33;;;7.30;99.90;;;;;;5066910;28;20308;-79
2021/12/01 05:20:13;;;;;;;0.50;0.50;;;7.40;99.90;;;;;;5066914;28;20248;-78
2021/12/01 05:22:39;;;;;;;1.13;0.47;;;7.30;99.90;;;;;;5073304;28;20249;-78
2021/12/01 05:25:06;;;;;;;1.70;0.60;;;7.40;99.90;;;;;;5081564;28;20213;-78
2021/12/01 05:27:32;;;;;;;0.40;0.40;;;7.40;99.90;;;;;;5051386;28;20445;-79
2021/12/01 05:29:58;;;;;;;0.30;0.30;;;7.40;99.90;;;;;;5067573;28;20202;-81
2021/12/01 05:32:24;;;;;;;0.33;0.33;;;7.40;99.90;;;;;;5067398;28;20181;-78
2021/12/01 05:34:50;;;;;;;0.30;0.30;;;7.40;99.90;;;;;;5066851;28;20183;-77
2021/12/01 05:37:16;;;;;;;0.30;0.30;;;7.40;99.90;;;;;;5067153;28;20566;-81
2021/12/01 05:39:44;;;;;;;0.30;0.30;;;7.50;99.90;;;;;;5049469;28;20189;-79
2021/12/01 05:42:12;;;;;;;0.40;0.40;;;7.50;99.90;;;;;;5048926;28;20558;-80
2021/12/01 05:44:38;;;;;;;0.50;0.50;;;7.50;99.90;;;;;;5066484;28;20229;-79
2021/12/01 05:47:04;;;;;;;0.60;0.50;;;7.50;99.90;;;;;;5066682;28;20178;-79
2021/12/01 05:49:30;;;;;;;0.27;0.20;;;7.50;99.90;;;;;;5067603;28;20670;-79
2021/12/01 05:51:56;;;;;;;0.40;0.40;;;7.50;99.90;;;;;;5049050;28;20215;-78
2021/12/01 05:54:21;;;;;;;0.43;0.30;;;7.50;99.90;;;;;;5066889;28;20177;-78
2021/12/01 05:56:47;;;;;;;0.30;0.30;;;7.60;99.90;;;;;;5067085;28;20243;-79
2021/12/01 05:59:13;;;;;;;0.67;0.33;;;7.60;99.90;;;;;;5066437;28;20914;-79
2021/12/01 06:01:38;;;;;;;0.40;0.40;;;7.50;99.90;;;;;;5048620;28;20225;-79
2021/12/01 06:04:04;;;;;;;0.30;0.30;;;7.40;99.90;;;;;;5066530;28;20181;-79
2021/12/01 06:06:30;;;;;;;0.73;0.40;;;7.50;99.90;;;;;;5066404;28;20185;-79
2021/12/01 06:08:58;;;;;;;0.30;0.30;;;7.50;99.90;;;;;;5048684;28;20201;-80
2021/12/01 06:11:25;;;;;;;0.53;0.30;;;7.50;99.90;;;;;;5048513;28;20216;-79
2021/12/01 06:13:53;;;;;;;0.40;0.40;;;7.50;99.90;;;;;;5048637;28;20185;-80
2021/12/01 06:16:23;;;;;;;0.30;0.30;;;7.40;99.90;;;;;;5065637;28;20188;-79
2021/12/01 06:18:49;;;;;;;1.23;0.47;;;7.50;99.90;;;;;;5066194;28;20197;-81
2021/12/01 06:21:16;;;;;;;0.30;0.30;;;7.50;99.90;;;;;;5065858;28;20308;-79
2021/12/01 06:23:42;;;;;;;0.20;0.20;;;7.40;99.90;;;;;;5065908;28;20189;-79
2021/12/01 06:26:07;;;;;;;0.40;0.30;;;7.50;99.90;;;;;;5047914;28;20197;-79
2021/12/01 06:28:33;;;;;;;0.27;0.27;;;7.40;99.90;;;;;;5066074;28;20671;-78
2021/12/01 06:30:58;;;;;;;0.30;0.30;;;7.40;99.90;;;;;;5047674;28;20205;-78
2021/12/01 06:33:24;;;;;;;0.27;0.23;;;7.40;99.90;;;;;;5047427;28;20644;-78
2021/12/01 06:35:52;;;;;;;0.63;0.20;;;7.40;99.90;;;;;;5066174;28;20193;-78
2021/12/01 06:38:19;;;;;;;0.30;0.30;;;7.50;99.90;;;;;;5047974;28;20578;-77
2021/12/01 06:40:46;;;;;;;0.30;0.30;;;7.40;99.90;;;;;;5047883;28;20186;-79
2021/12/01 06:43:12;;;;;;;0.20;0.20;;;7.40;99.90;;;;;;5048113;28;20196;-78
2021/12/01 06:45:38;;;;;;;0.10;0.10;;;7.40;99.90;;;;;;5066197;28;20213;-77
2021/12/01 06:48:04;;;;;;;0.30;0.30;;;7.40;99.90;;;;;;5047622;28;20217;-79
2021/12/01 06:50:30;;;;;;;0.30;0.30;;;7.50;99.90;;;;;;5047652;28;20205;-78
2021/12/01 06:52:56;;;;;;;0.30;0.30;;;7.50;99.90;;;;;;5065863;28;20248;-78
2021/12/01 06:55:23;;;;;;;0.20;0.20;;;7.50;99.90;;;;;;5047594;28;20965;-78
2021/12/01 06:57:49;;;;;;;0.60;0.30;;;7.40;99.90;;;;;;5047397;28;20213;-80
2021/12/01 07:00:16;;;;;;;0.47;0.30;;;7.50;99.90;;;;;;5065233;28;20181;-79
2021/12/01 07:02:42;;;;;;;0.50;0.40;;;7.50;99.90;;;;;;5047550;28;20564;-79
2021/12/01 07:05:08;;;;;;;0.50;0.30;;;7.50;99.90;;;;;;5065995;28;20185;-79
2021/12/01 07:07:34;;;;;;;0.30;0.30;;;7.50;99.90;;;;;;5065813;28;20209;-79
2021/12/01 07:10:00;;;;;;;0.40;0.40;;;7.50;99.90;;;;;;5065319;28;20238;-80
2021/12/01 07:12:26;;;;;;;1.03;0.40;;;7.50;99.90;;;;;;5047629;28;20587;-79
2021/12/01 07:14:52;;;;;;;0.40;0.33;;;7.50;99.90;;;;;;5047328;28;20181;-80
2021/12/01 07:17:19;;;;;;;0.40;0.40;;;7.50;99.90;;;;;;5065359;28;20681;-79
2021/12/01 07:19:45;;;;;;;0.23;0.20;;;7.50;99.90;;;;;;5047265;28;20182;-80
2021/12/01 07:22:11;;;;;;;1.10;0.50;;;7.50;99.90;;;;;;5036009;28;20189;-79
2021/12/01 07:24:36;;;;;;;0.50;0.40;;;7.60;99.90;;;;;;5045753;28;20181;-78
2021/12/01 07:27:02;;;;;;;0.40;0.40;;;7.50;99.90;;;;;;5046439;28;20178;-79
2021/12/01 07:29:30;;;;;;;0.50;0.30;;;7.50;99.90;;;;;;5046684;28;20181;-79
2021/12/01 07:31:56;;;;;;;0.40;0.40;;;7.50;99.90;;;;;;5065462;28;20203;-79
2021/12/01 07:34:22;;;;;;;0.40;0.40;;;7.40;99.90;;;;;;5066648;28;20260;-78
2021/12/01 07:36:48;;;;;;;0.40;0.40;;;7.50;99.90;;;;;;5047018;28;20215;-78
2021/12/01 07:39:13;;;;;;;0.40;0.40;;;7.60;99.90;;;;;;5046517;28;20201;-79
2021/12/01 07:41:39;;;;;;;0.40;0.40;;;7.50;99.90;;;;;;5064753;28;20189;-79
2021/12/01 07:44:05;;;;;;;0.50;0.43;;;7.50;99.90;;;;;;5064055;28;20573;-78
2021/12/01 07:46:30;;;;;;;0.40;0.40;;;7.50;99.90;;;;;;5067848;28;20185;-78
2021/12/01 07:48:56;;;;;;;0.50;0.50;;;7.50;99.90;;;;;;5050919;28;20204;-78
2021/12/01 07:51:21;;;;;;;0.53;0.47;;;7.50;99.90;;;;;;5067488;28;20205;-78
2021/12/01 07:53:47;;;;;;;0.50;0.50;;;7.50;99.90;;;;;;5050462;28;20276;-78
2021/12/01 07:56:13;;;;;;;0.73;0.53;;;7.50;99.90;;;;;;5050303;28;20185;-78
2021/12/01 07:58:38;;;;;;;0.40;0.40;;;7.50;99.90;;;;;;5068107;28;20213;-78
2021/12/01 08:01:04;;;;;;;0.43;0.40;;;7.50;99.90;;;;;;5069003;28;20543;-78
2021/12/01 08:03:29;;;;;;;1.23;0.43;;;7.50;99.90;;;;;;5050206;28;20185;-79
2021/12/01 08:05:55;;;;;;;0.63;0.60;;;7.50;99.90;;;;;;5069350;28;20521;-77
2021/12/01 08:08:21;;;;;;;0.43;0.40;;;7.50;99.90;;;;;;5068342;28;20209;-78
2021/12/01 08:10:46;;;;;;;1.17;0.57;;;7.50;99.90;;;;;;5050528;28;20205;-79
2021/12/01 08:13:12;;;;;;;0.70;0.50;;;7.50;99.90;;;;;;5068392;28;20186;-78
2021/12/01 08:15:38;;;;;;;0.50;0.50;;;7.50;99.90;;;;;;5066561;28;20491;-77
2021/12/01 08:18:04;;;;;;;1.30;0.60;;;7.50;99.90;;;;;;5048317;28;20201;-78
2021/12/01 08:20:29;;;;;;;0.67;0.60;;;7.50;99.90;;;;;;5066460;28;20186;-78
2021/12/01 08:22:55;;;;;;;0.50;0.50;;;7.40;99.90;;;;;;5048445;28;20189;-79
2021/12/01 08:25:22;;;;;;;1.23;0.77;;;7.40;99.90;;;;;;5066584;28;20547;-79
2021/12/01 08:27:48;;;;;;;0.97;0.80;;;7.40;99.90;;;;;;5066530;28;20201;-78
2021/12/01 08:30:14;;;;;;;2.07;0.57;;;7.40;99.90;;;;;;5066345;28;20217;-78
2021/12/01 08:32:45;;;;;;;0.67;0.50;;;7.50;99.90;;;;;;5065917;28;20865;-77
2021/12/01 08:35:13;;;;;;;0.50;0.40;;;7.50;99.90;;;;;;5048277;28;20663;-80
2021/12/01 08:37:39;;;;;;;0.80;0.70;;;7.50;99.90;;;;;;5067563;28;20239;-79
2021/12/01 08:40:05;;;;;;;0.60;0.53;;;7.40;99.90;;;;;;5060480;28;20194;-79
2021/12/01 08:42:33;;;;;;;0.43;0.43;;;7.50;99.90;;;;;;5069099;28;20185;-79
2021/12/01 08:44:59;;;;;;;1.20;0.60;;;7.50;99.90;;;;;;5059257;28;20242;-79
2021/12/01 08:47:25;;;;;;;0.70;0.63;;;7.50;99.90;;;;;;5050344;28;20213;-81
2021/12/01 08:49:51;;;;;;;0.60;0.60;;;7.50;99.90;;;;;;5050641;28;20242;-78
2021/12/01 08:52:17;;;;;;;0.50;0.50;;;7.50;99.90;;;;;;5069214;28;20178;-78
2021/12/01 08:54:43;;;;;;;0.40;0.40;;;7.50;99.90;;;;;;5051534;28;20700;-78
2021/12/01 08:57:08;;;;;;;0.40;0.40;;;7.50;99.90;;;;;;5049610;28;20212;-77
2021/12/01 08:59:36;;;;;;;0.60;0.60;;;7.50;99.90;;;;;;5071295;28;20246;-76
2021/12/01 09:02:02;;;;;;;0.50;0.50;;;7.60;99.90;;;;;;5053455;28;20189;-80
2021/12/01 09:04:28;;;;;;;0.50;0.40;;;7.60;99.90;;;;;;5070478;28;20183;-81
2021/12/01 09:06:54;;;;;;;0.30;0.30;;;7.70;99.90;;;;;;5044627;28;20249;-80
2021/12/01 09:09:20;;;;;;;0.50;0.50;;;7.80;99.90;;;;;;5070560;28;20208;-80
2021/12/01 09:11:48;;;;;;;2.07;0.60;;;7.80;99.90;;;;;;5070604;28;20217;-79
2021/12/01 09:14:14;;;;;;;0.50;0.40;;;7.90;99.90;;;;;;5052236;28;20186;-78
2021/12/01 09:16:45;;;;;;;0.30;0.30;;;7.80;99.90;;;;;;5052585;28;20186;-78
2021/12/01 09:19:11;;;;;;;0.30;0.30;;;7.90;99.90;;;;;;5052544;28;20315;-80
2021/12/01 09:21:37;;;;;;;0.40;0.40;;;7.80;99.90;;;;;;5050449;28;20264;-77
2021/12/01 09:24:03;;;;;;;0.30;0.30;;;7.80;99.90;;;;;;5070571;28;20185;-76
2021/12/01 09:26:30;;;;;;;0.40;0.30;;;7.90;99.90;;;;;;5071208;28;20227;-79
2021/12/01 09:28:55;;;;;;;0.53;0.40;;;7.90;99.90;;;;;;5070529;28;20209;-77
2021/12/01 09:31:21;;;;;;;0.47;0.40;;;7.90;99.90;;;;;;5059644;28;20224;-77
2021/12/01 09:33:47;;;;;;;0.20;0.20;;;7.90;99.90;;;;;;5058439;28;20217;-77
2021/12/01 09:36:13;;;;;;;0.60;0.50;;;7.90;99.90;;;;;;5070806;28;20174;-78
2021/12/01 09:38:39;;;;;;;0.50;0.40;;;7.80;99.90;;;;;;5067607;28;20197;-77
2021/12/01 09:41:05;;;;;;;0.30;0.30;;;7.90;99.90;;;;;;5068410;28;20615;-77
2021/12/01 09:43:31;;;;;;;0.50;0.40;;;7.90;99.90;;;;;;5050813;28;20272;-80
2021/12/01 09:46:00;;;;;;;0.50;0.50;;;7.80;99.90;;;;;;5049953;28;20267;-80
2021/12/01 09:48:27;;;;;;;0.30;0.30;;;7.90;99.90;;;;;;5068532;28;20260;-79
2021/12/01 09:50:53;;;;;;;0.30;0.30;;;7.90;99.90;;;;;;5068013;28;20213;-79
2021/12/01 09:53:19;;;;;;;0.43;0.43;;;8.00;99.90;;;;;;5066191;28;20173;-79
2021/12/01 09:55:45;;;;;;;0.30;0.30;;;8.00;99.90;;;;;;5048119;28;20211;-78
2021/12/01 09:58:24;;;;;;;0.43;0.40;;;8.10;99.90;;;;;;5066678;28;20221;-79
2021/12/01 10:00:53;;;;;;;0.53;0.33;;;8.20;99.90;;;;;;5048208;28;20185;-80
2021/12/01 10:03:19;;;;;;;0.40;0.40;;;8.20;99.90;;;;;;5065829;28;20174;-77
2021/12/01 10:06:04;;;;;;;0.43;0.40;;;8.20;99.90;;;;;;5047363;28;20483;-76
2021/12/01 10:08:46;;;;;;;0.30;0.30;;;8.20;99.90;;;;;;5064352;28;20225;-78
2021/12/01 10:11:16;;;;;;;0.43;0.30;;;8.30;99.90;;;;;;5046580;28;20189;-79
2021/12/01 10:13:45;;;;;;;0.50;0.50;;;8.30;99.90;;;;;;5065414;28;20618;-76
2021/12/01 10:16:13;;;;;;;0.30;0.30;;;8.30;99.90;;;;;;5065054;28;20184;-76
2021/12/01 10:18:43;;;;;;;0.40;0.40;;;8.30;99.90;;;;;;5047135;28;20292;-79
2021/12/01 10:21:18;;;;;;;0.40;0.40;;;8.30;99.90;;;;;;5064609;28;20185;-77
2021/12/01 10:23:50;;;;;;;0.57;0.50;;;8.30;99.90;;;;;;5046870;28;20794;-75
2021/12/01 10:26:27;;;;;;;0.30;0.30;;;8.30;99.90;;;;;;5064927;28;20181;-80
2021/12/01 10:28:55;;;;;;;0.40;0.40;;;8.30;99.90;;;;;;5046606;28;20651;-75
2021/12/01 10:31:42;;;;;;;0.43;0.40;;;8.30;99.90;;;;;;5046667;28;20252;-76
2021/12/01 10:34:20;;;;;;;0.40;0.33;;;8.40;99.90;;;;;;5046823;28;20916;-78
2021/12/01 10:36:48;;;;;;;0.30;0.27;;;8.40;99.90;;;;;;5064109;28;20186;-80
2021/12/01 10:39:14;;;;;;;1.27;0.40;;;8.40;99.90;;;;;;5045486;28;20209;-79
2021/12/01 10:41:42;;;;;;;0.30;0.30;;;8.40;99.90;;;;;;5046229;28;20554;-79
2021/12/01 10:44:17;;;;;;;1.23;0.93;;;8.40;99.90;;;;;;5064600;28;20665;-79
2021/12/01 10:46:51;;;;;;;1.27;1.17;;;8.30;99.90;;;;;;5045435;28;20516;-78
2021/12/01 10:49:33;;;;;;;1.37;0.77;;;8.30;99.90;;;;;;5045170;28;20705;-79
2021/12/01 10:51:58;;;;;;;0.50;0.50;;;8.40;99.90;;;;;;5044621;28;20200;-80
2021/12/01 10:54:26;;;;;;;0.97;0.63;;;8.50;99.90;;;;;;5045570;28;20261;-79
2021/12/01 10:57:18;;;;;;;0.40;0.40;;;8.50;99.90;;;;;;5045841;28;20607;-78
2021/12/01 10:59:46;;;;;;;0.30;0.30;;;8.50;99.90;;;;;;5046417;28;20212;-79
2021/12/01 11:02:12;;;;;;;0.33;0.33;;;8.40;99.90;;;;;;5045934;28;20725;-79
2021/12/01 11:04:46;;;;;;;0.37;0.37;;;8.50;99.90;;;;;;5046441;28;20185;-79
2021/12/01 11:07:32;;;;;;;1.27;0.73;;;8.50;99.90;;;;;;5046613;28;20609;-80
2021/12/01 11:10:13;;;;;;;0.60;0.60;;;8.40;99.90;;;;;;5047390;28;20185;-79
2021/12/01 11:12:39;;;;;;;0.30;0.30;;;8.40;99.90;;;;;;5047576;28;20189;-80
2021/12/01 11:15:18;;;;;;;0.40;0.40;;;8.40;99.90;;;;;;5064469;28;20181;-80
2021/12/01 11:17:44;;;;;;;0.30;0.30;;;8.50;99.90;;;;;;5046036;28;20213;-78
2021/12/01 11:20:11;;;;;;;0.50;0.40;;;8.50;99.90;;;;;;5045336;28;20212;-82
2021/12/01 11:22:37;;;;;;;0.37;0.30;;;8.60;99.90;;;;;;5050657;28;20186;-79
2021/12/01 11:25:24;;;;;;;0.40;0.40;;;8.60;99.90;;;;;;5046194;28;20216;-80
2021/12/01 11:27:50;;;;;;;0.30;0.30;;;8.60;99.90;;;;;;5053361;28;20229;-80
2021/12/01 11:30:16;;;;;;;0.27;0.27;;;8.60;99.90;;;;;;5048072;28;20248;-81
2021/12/01 11:32:42;;;;;;;0.97;0.60;;;8.70;99.90;;;;;;5047352;28;20227;-81
2021/12/01 11:35:08;;;;;;;1.07;0.40;;;8.60;99.90;;;;;;5049075;28;20643;-79
2021/12/01 11:37:35;;;;;;;0.70;0.30;;;8.80;99.90;;;;;;5046630;28;20209;-79
2021/12/01 11:40:01;;;;;;;0.50;0.40;;;8.70;99.90;;;;;;5063041;28;20251;-81
2021/12/01 11:42:27;;;;;;;0.30;0.30;;;8.70;99.90;;;;;;5060588;28;20192;-79
2021/12/01 11:44:56;;;;;;;0.30;0.30;;;8.70;99.90;;;;;;5044076;28;20272;-81
2021/12/01 11:47:22;;;;;;;0.33;0.33;;;8.80;99.90;;;;;;5044118;28;20688;-81
2021/12/01 11:49:51;;;;;;;1.67;0.83;;;8.90;99.90;;;;;;5062285;28;20182;-79
2021/12/01 11:52:20;;;;;;;0.30;0.30;;;9.00;99.90;;;;;;5043740;28;20694;-82
2021/12/01 11:54:46;;;;;;;0.50;0.23;;;9.00;99.90;;;;;;5043834;28;20186;-80
2021/12/01 11:57:12;;;;;;;0.50;0.50;;;8.90;99.90;;;;;;5061264;28;20190;-80
2021/12/01 11:59:43;;;;;;;0.53;0.33;;;8.80;99.90;;;;;;5042366;28;20186;-77
2021/12/01 12:02:18;;;;;;;0.50;0.30;;;8.80;99.90;;;;;;5062489;28;20272;-79
2021/12/01 12:04:51;;;;;;;0.30;0.30;;;8.70;99.90;;;;;;5063641;28;20226;-80
2021/12/01 12:07:32;;;;;;;3.13;2.00;;;8.70;99.90;;;;;;5061844;28;20209;-80
2021/12/01 12:10:19;;;;;;;0.40;0.30;;;8.70;99.90;;;;;;5043726;28;20185;-82
2021/12/01 12:12:46;;;;;;;0.50;0.50;;;8.80;99.90;;;;;;5045109;28;20276;-81
2021/12/01 12:15:36;;;;;;;0.30;0.30;;;8.90;99.90;;;;;;5043916;28;20192;-78
2021/12/01 12:18:02;;;;;;;1.13;0.50;;;8.90;99.90;;;;;;5061504;28;20278;-79
2021/12/01 12:20:33;;;;;;;0.47;0.47;;;8.90;99.90;;;;;;5043755;28;20232;-80
2021/12/01 12:23:02;;;;;;;0.50;0.50;;;8.90;99.90;;;;;;5043821;28;20209;-79
2021/12/01 12:25:50;;;;;;;0.40;0.40;;;8.90;99.90;;;;;;5043834;28;20189;-82
2021/12/01 12:28:19;;;;;;;0.40;0.40;;;8.90;99.90;;;;;;5061769;28;20239;-77
2021/12/01 12:30:44;;;;;;;0.30;0.30;;;9.00;99.90;;;;;;5045024;28;20745;-77
2021/12/01 12:33:32;;;;;;;0.30;0.30;;;8.90;99.90;;;;;;5047625;28;20181;-78
2021/12/01 12:36:04;;;;;;;0.30;0.30;;;9.00;99.90;;;;;;5046704;28;20728;-81
2021/12/01 12:38:30;;;;;;;0.30;0.30;;;9.00;99.90;;;;;;5047453;28;20315;-79
2021/12/01 12:41:14;;;;;;;0.57;0.37;;;9.10;99.90;;;;;;5065580;28;20192;-78
2021/12/01 12:43:42;;;;;;;7.20;4.57;;;9.00;99.90;;;;;;5065870;28;20629;-83
2021/12/01 12:46:17;;;;;;;0.50;0.50;;;9.00;99.90;;;;;;5050203;28;20177;-81
2021/12/01 12:48:49;;;;;;;0.43;0.30;;;8.90;99.90;;;;;;5051505;28;20246;-77
2021/12/01 12:51:19;;;;;;;0.30;0.30;;;8.90;99.90;;;;;;5050164;28;21135;-80
2021/12/01 12:54:07;;;;;;;0.40;0.30;;;8.80;99.90;;;;;;5050400;28;20654;-77
2021/12/01 12:56:43;;;;;;;0.40;0.40;;;8.70;99.90;;;;;;5050220;28;20189;-80
2021/12/01 12:59:33;;;;;;;0.30;0.30;;;8.70;99.90;;;;;;5050770;28;20233;-82
2021/12/01 13:02:09;;;;;;;0.70;0.40;;;8.70;99.90;;;;;;5051546;28;20278;-82
2021/12/01 13:04:47;;;;;;;1.23;0.30;;;8.80;99.90;;;;;;5069814;28;20195;-81
2021/12/01 13:07:39;;;;;;;0.30;0.30;;;8.70;99.90;;;;;;5050132;28;20193;-79
2021/12/01 13:10:14;;;;;;;0.20;0.20;;;8.70;99.90;;;;;;5068636;28;20197;-80